createdAt,value
2023-06-10T00:00:43.828Z,18.28
2023-06-10T00:01:43.928Z,18.28
2023-06-10T00:02:44.106Z,18.25
2023-06-10T00:03:44.339Z,18.25
2023-06-10T00:04:44.235Z,18.25
2023-06-10T00:05:44.210Z,18.26
2023-06-10T00:06:44.289Z,18.26
2023-06-10T00:07:44.378Z,18.23
2023-06-10T00:08:44.456Z,18.21
2023-06-10T00:09:44.527Z,18.21
2023-06-10T00:10:44.632Z,18.19
2023-06-10T00:11:44.698Z,18.17
2023-06-10T00:12:44.811Z,18.19
2023-06-10T00:13:44.841Z,18.17
2023-06-10T00:14:44.933Z,18.16
2023-06-10T00:15:45.013Z,18.16
2023-06-10T00:16:45.136Z,18.17
2023-06-10T00:17:45.232Z,18.11
2023-06-10T00:18:45.268Z,18.10
2023-06-10T00:19:45.365Z,18.10
2023-06-10T00:20:45.439Z,18.07
2023-06-10T00:21:45.513Z,18.05
2023-06-10T00:22:45.651Z,18.10
2023-06-10T00:23:45.680Z,18.13
2023-06-10T00:24:45.743Z,18.14
2023-06-10T00:25:45.829Z,18.16
2023-06-10T00:26:45.926Z,18.19
2023-06-10T00:27:46.029Z,18.20
2023-06-10T00:28:46.068Z,18.25
2023-06-10T00:29:46.146Z,18.28
2023-06-10T00:30:46.242Z,18.29
2023-06-10T00:31:46.407Z,18.32
2023-06-10T00:32:46.479Z,18.34
2023-06-10T00:33:46.487Z,18.35
2023-06-10T00:34:46.569Z,18.36
2023-06-10T00:35:46.636Z,18.38
2023-06-10T00:36:46.711Z,18.39
2023-06-10T00:37:46.808Z,18.44
2023-06-10T00:38:46.885Z,18.49
2023-06-10T00:39:46.983Z,18.50
2023-06-10T00:40:47.062Z,18.49
2023-06-10T00:41:47.132Z,18.46
2023-06-10T00:42:47.249Z,18.42
2023-06-10T00:43:47.293Z,18.42
2023-06-10T00:44:47.379Z,18.38
2023-06-10T00:45:47.475Z,18.36
2023-06-10T00:46:47.520Z,18.35
2023-06-10T00:47:47.675Z,18.31
2023-06-10T00:48:47.690Z,18.31
2023-06-10T00:49:47.765Z,18.26
2023-06-10T00:50:47.845Z,18.28
2023-06-10T00:51:47.921Z,18.28
2023-06-10T00:52:48.057Z,18.23
2023-06-10T00:53:48.088Z,18.21
2023-06-10T00:54:48.265Z,18.20
2023-06-10T00:55:48.232Z,18.20
2023-06-10T00:56:48.300Z,18.19
2023-06-10T00:57:48.404Z,18.17
2023-06-10T00:58:48.444Z,18.13
2023-06-10T00:59:48.549Z,18.10
2023-06-10T01:00:48.634Z,18.11
2023-06-10T01:01:48.779Z,18.10
2023-06-10T01:02:48.909Z,18.10
2023-06-10T01:03:48.834Z,18.07
2023-06-10T01:04:48.909Z,18.04
2023-06-10T01:05:48.977Z,17.99
2023-06-10T01:06:49.056Z,17.96
2023-06-10T01:07:49.136Z,17.94
2023-06-10T01:08:49.219Z,17.89
2023-06-10T01:09:49.295Z,17.84
2023-06-10T01:10:49.380Z,17.80
2023-06-10T01:11:49.463Z,17.79
2023-06-10T01:12:49.673Z,17.79
2023-06-10T01:13:49.615Z,17.77
2023-06-10T01:14:49.733Z,17.73
2023-06-10T01:15:49.796Z,17.71
2023-06-10T01:16:49.945Z,17.66
2023-06-10T01:17:49.985Z,17.65
2023-06-10T01:18:50.038Z,17.65
2023-06-10T01:19:50.144Z,17.60
2023-06-10T01:20:51.681Z,17.58
2023-06-10T01:21:50.259Z,17.55
2023-06-10T01:22:50.394Z,17.49
2023-06-10T01:23:50.484Z,17.47
2023-06-10T01:24:50.562Z,17.46
2023-06-10T01:25:50.620Z,17.46
2023-06-10T01:26:50.693Z,17.46
2023-06-10T01:27:50.833Z,17.45
2023-06-10T01:28:50.890Z,17.40
2023-06-10T01:29:50.976Z,17.38
2023-06-10T01:30:51.070Z,17.38
2023-06-10T01:31:51.194Z,17.38
2023-06-10T01:32:51.308Z,17.38
2023-06-10T01:33:51.308Z,17.38
2023-06-10T01:34:51.370Z,17.33
2023-06-10T01:35:51.463Z,17.32
2023-06-10T01:36:51.544Z,17.28
2023-06-10T01:37:51.653Z,17.25
2023-06-10T01:38:51.706Z,17.24
2023-06-10T01:39:51.788Z,17.21
2023-06-10T01:40:51.861Z,17.17
2023-06-10T01:41:51.919Z,17.20
2023-06-10T01:42:52.010Z,17.17
2023-06-10T01:43:52.114Z,17.18
2023-06-10T01:44:52.179Z,17.18
2023-06-10T01:45:52.271Z,17.18
2023-06-10T01:46:52.436Z,17.18
2023-06-10T01:47:52.491Z,17.15
2023-06-10T01:48:52.508Z,17.17
2023-06-10T01:49:52.608Z,17.17
2023-06-10T01:50:52.667Z,17.20
2023-06-10T01:51:52.742Z,17.14
2023-06-10T01:52:52.853Z,17.17
2023-06-10T01:53:52.900Z,17.15
2023-06-10T01:54:52.981Z,17.14
2023-06-10T01:55:53.082Z,17.12
2023-06-10T01:56:53.143Z,17.10
2023-06-10T01:57:53.251Z,17.09
2023-06-10T01:58:53.285Z,17.03
2023-06-10T01:59:53.386Z,17.00
2023-06-10T02:00:53.502Z,16.96
2023-06-10T02:01:53.561Z,16.95
2023-06-10T02:02:53.830Z,16.92
2023-06-10T02:03:53.785Z,16.91
2023-06-10T02:04:53.810Z,16.90
2023-06-10T02:05:53.899Z,16.90
2023-06-10T02:06:54.000Z,16.90
2023-06-10T02:07:54.119Z,16.87
2023-06-10T02:08:54.162Z,16.82
2023-06-10T02:09:54.256Z,16.81
2023-06-10T02:10:54.333Z,16.78
2023-06-10T02:11:54.420Z,16.73
2023-06-10T02:12:54.561Z,16.70
2023-06-10T02:13:54.598Z,16.69
2023-06-10T02:14:54.692Z,16.67
2023-06-10T02:15:54.804Z,16.65
2023-06-10T02:16:54.909Z,16.62
2023-06-10T02:17:54.978Z,16.60
2023-06-10T02:18:55.018Z,16.65
2023-06-10T02:19:55.116Z,16.62
2023-06-10T02:20:55.204Z,16.60
2023-06-10T02:21:55.293Z,16.57
2023-06-10T02:22:55.399Z,16.55
2023-06-10T02:23:55.559Z,16.54
2023-06-10T02:24:55.509Z,16.54
2023-06-10T02:25:55.591Z,16.51
2023-06-10T02:26:55.677Z,16.50
2023-06-10T02:27:55.803Z,16.47
2023-06-10T02:28:55.864Z,16.45
2023-06-10T02:29:55.987Z,16.41
2023-06-10T02:30:56.017Z,16.40
2023-06-10T02:31:56.202Z,16.44
2023-06-10T02:32:56.200Z,16.45
2023-06-10T02:33:56.262Z,16.47
2023-06-10T02:34:56.317Z,16.45
2023-06-10T02:35:56.414Z,16.45
2023-06-10T02:36:56.483Z,16.44
2023-06-10T02:37:56.625Z,16.44
2023-06-10T02:38:56.632Z,16.42
2023-06-10T02:39:56.735Z,16.41
2023-06-10T02:40:56.781Z,16.36
2023-06-10T02:41:56.886Z,16.36
2023-06-10T02:42:56.973Z,16.34
2023-06-10T02:43:57.032Z,16.33
2023-06-10T02:44:57.149Z,16.32
2023-06-10T02:45:57.219Z,16.30
2023-06-10T02:46:57.289Z,16.27
2023-06-10T02:47:57.404Z,16.23
2023-06-10T02:48:57.476Z,16.16
2023-06-10T02:49:57.530Z,16.11
2023-06-10T02:50:57.620Z,16.10
2023-06-10T02:51:57.704Z,16.08
2023-06-10T02:52:57.799Z,16.07
2023-06-10T02:53:57.865Z,16.06
2023-06-10T02:54:57.964Z,16.03
2023-06-10T02:55:58.045Z,16.07
2023-06-10T02:56:58.147Z,16.10
2023-06-10T02:57:58.235Z,16.13
2023-06-10T02:58:58.287Z,16.13
2023-06-10T02:59:58.366Z,16.10
2023-06-10T03:00:58.463Z,16.07
2023-06-10T03:01:58.565Z,16.04
2023-06-10T03:02:58.997Z,15.96
2023-06-10T03:03:58.697Z,15.93
2023-06-10T03:04:58.772Z,15.89
2023-06-10T03:05:58.843Z,15.89
2023-06-10T03:06:58.961Z,15.91
2023-06-10T03:07:59.090Z,15.92
2023-06-10T03:08:59.106Z,15.92
2023-06-10T03:09:59.197Z,15.91
2023-06-10T03:10:59.302Z,15.92
2023-06-10T03:11:59.384Z,15.91
2023-06-10T03:12:59.508Z,15.91
2023-06-10T03:13:59.569Z,15.89
2023-06-10T03:14:59.655Z,15.89
2023-06-10T03:15:59.797Z,15.88
2023-06-10T03:16:59.794Z,15.86
2023-06-10T03:17:59.943Z,15.85
2023-06-10T03:18:59.976Z,15.86
2023-06-10T03:20:00.044Z,15.86
2023-06-10T03:21:00.092Z,15.86
2023-06-10T03:22:00.183Z,15.86
2023-06-10T03:23:00.272Z,15.88
2023-06-10T03:24:00.370Z,15.88
2023-06-10T03:25:00.404Z,15.86
2023-06-10T03:26:00.454Z,15.85
2023-06-10T03:27:00.558Z,15.85
2023-06-10T03:28:00.641Z,15.80
2023-06-10T03:29:00.713Z,15.76
2023-06-10T03:30:00.769Z,15.74
2023-06-10T03:31:00.900Z,15.71
2023-06-10T03:32:00.965Z,15.68
2023-06-10T03:33:01.146Z,15.60
2023-06-10T03:34:01.126Z,15.55
2023-06-10T03:35:01.240Z,15.56
2023-06-10T03:36:01.298Z,15.67
2023-06-10T03:37:01.398Z,15.70
2023-06-10T03:38:01.504Z,15.77
2023-06-10T03:39:01.565Z,15.77
2023-06-10T03:40:01.623Z,15.77
2023-06-10T03:41:01.696Z,15.81
2023-06-10T03:42:01.764Z,15.81
2023-06-10T03:43:01.873Z,15.84
2023-06-10T03:44:01.937Z,15.88
2023-06-10T03:45:02.013Z,15.89
2023-06-10T03:46:02.117Z,15.92
2023-06-10T03:47:02.188Z,15.89
2023-06-10T03:48:02.411Z,15.86
2023-06-10T03:49:02.359Z,15.86
2023-06-10T03:50:02.421Z,15.88
2023-06-10T03:51:02.506Z,15.86
2023-06-10T03:52:02.555Z,15.88
2023-06-10T03:53:02.678Z,15.89
2023-06-10T03:54:02.729Z,15.91
2023-06-10T03:55:02.827Z,15.91
2023-06-10T03:56:02.898Z,15.89
2023-06-10T03:57:02.992Z,15.88
2023-06-10T03:58:03.075Z,15.86
2023-06-10T03:59:03.149Z,15.88
2023-06-10T04:00:03.209Z,15.91
2023-06-10T04:01:03.289Z,15.91
2023-06-10T04:02:03.386Z,15.91
2023-06-10T04:03:03.524Z,15.92
2023-06-10T04:04:03.540Z,15.93
2023-06-10T04:05:03.647Z,15.95
2023-06-10T04:06:03.748Z,15.95
2023-06-10T04:07:03.812Z,15.93
2023-06-10T04:08:03.891Z,15.96
2023-06-10T04:09:03.948Z,15.99
2023-06-10T04:10:04.012Z,16.01
2023-06-10T04:11:04.118Z,16.03
2023-06-10T04:12:04.174Z,16.04
2023-06-10T04:13:04.362Z,16.03
2023-06-10T04:14:04.332Z,16.04
2023-06-10T04:15:04.436Z,16.03
2023-06-10T04:16:04.530Z,15.95
2023-06-10T04:17:04.669Z,15.95
2023-06-10T04:18:04.804Z,15.91
2023-06-10T04:19:04.777Z,15.91
2023-06-10T04:20:04.872Z,15.93
2023-06-10T04:21:04.997Z,15.95
2023-06-10T04:22:05.078Z,15.89
2023-06-10T04:23:05.163Z,15.88
2023-06-10T04:24:05.258Z,15.86
2023-06-10T04:25:05.296Z,15.89
2023-06-10T04:26:05.342Z,15.89
2023-06-10T04:27:05.447Z,15.92
2023-06-10T04:28:05.514Z,15.93
2023-06-10T04:29:05.587Z,15.95
2023-06-10T04:30:05.645Z,16.01
2023-06-10T04:31:05.768Z,16.07
2023-06-10T04:32:05.898Z,16.11
2023-06-10T04:33:06.000Z,16.14
2023-06-10T04:34:06.036Z,16.18
2023-06-10T04:35:06.227Z,16.25
2023-06-10T04:36:06.151Z,16.27
2023-06-10T04:37:06.240Z,16.32
2023-06-10T04:38:06.362Z,16.34
2023-06-10T04:39:06.412Z,16.40
2023-06-10T04:40:06.501Z,16.44
2023-06-10T04:41:06.595Z,16.47
2023-06-10T04:42:06.689Z,16.51
2023-06-10T04:43:06.810Z,16.51
2023-06-10T04:44:06.847Z,16.55
2023-06-10T04:45:07.259Z,16.60
2023-06-10T04:46:08.960Z,16.65
2023-06-10T04:47:07.174Z,16.67
2023-06-10T04:48:07.289Z,16.72
2023-06-10T04:49:07.283Z,16.75
2023-06-10T04:50:07.362Z,16.81
2023-06-10T04:51:07.453Z,16.84
2023-06-10T04:52:07.500Z,16.88
2023-06-10T04:53:07.619Z,16.90
2023-06-10T04:54:07.652Z,16.92
2023-06-10T04:55:08.027Z,16.96
2023-06-10T04:56:07.827Z,17.00
2023-06-10T04:57:07.917Z,17.05
2023-06-10T04:58:08.017Z,17.03
2023-06-10T04:59:08.087Z,17.05
2023-06-10T05:00:08.150Z,17.07
2023-06-10T05:01:08.235Z,17.10
2023-06-10T05:02:08.327Z,17.14
2023-06-10T05:03:08.536Z,17.17
2023-06-10T05:04:08.495Z,17.21
2023-06-10T05:05:08.835Z,17.25
2023-06-10T05:06:08.616Z,17.32
2023-06-10T05:07:08.697Z,17.35
2023-06-10T05:08:08.874Z,17.40
2023-06-10T05:09:08.877Z,17.43
2023-06-10T05:10:08.923Z,17.47
2023-06-10T05:11:09.031Z,17.51
2023-06-10T05:12:09.082Z,17.57
2023-06-10T05:13:09.193Z,17.63
2023-06-10T05:14:09.216Z,17.71
2023-06-10T05:15:09.691Z,17.74
2023-06-10T05:16:09.420Z,17.79
2023-06-10T05:17:09.463Z,17.81
2023-06-10T05:18:09.625Z,17.87
2023-06-10T05:19:09.634Z,17.94
2023-06-10T05:20:09.703Z,17.95
2023-06-10T05:21:09.777Z,17.99
2023-06-10T05:22:09.849Z,18.02
2023-06-10T05:23:09.941Z,18.09
2023-06-10T05:24:09.998Z,18.13
2023-06-10T05:25:10.469Z,18.17
2023-06-10T05:26:10.144Z,18.25
2023-06-10T05:27:10.221Z,18.32
2023-06-10T05:28:11.695Z,18.41
2023-06-10T05:29:10.418Z,18.53
2023-06-10T05:30:10.459Z,18.68
2023-06-10T05:31:10.543Z,18.84
2023-06-10T05:32:10.732Z,19.07
2023-06-10T05:33:10.789Z,19.28
2023-06-10T05:34:10.776Z,19.53
2023-06-10T05:35:11.279Z,19.82
2023-06-10T05:36:10.944Z,20.08
2023-06-10T05:37:11.038Z,20.30
2023-06-10T05:38:11.139Z,20.54
2023-06-10T05:39:11.225Z,20.82
2023-06-10T05:40:11.285Z,21.12
2023-06-10T05:41:11.368Z,21.42
2023-06-10T05:42:11.453Z,21.70
2023-06-10T05:43:11.541Z,21.96
2023-06-10T05:44:14.157Z,22.31
2023-06-10T05:45:11.770Z,22.64
2023-06-10T05:46:11.787Z,22.96
2023-06-10T05:47:11.826Z,23.29
2023-06-10T05:48:12.009Z,23.62
2023-06-10T05:49:11.969Z,23.94
2023-06-10T05:50:12.021Z,24.27
2023-06-10T05:51:12.123Z,24.60
2023-06-10T05:52:12.203Z,24.86
2023-06-10T05:53:12.306Z,25.12
2023-06-10T05:54:12.377Z,25.38
2023-06-10T05:55:12.697Z,25.64
2023-06-10T05:56:12.528Z,25.82
2023-06-10T05:57:12.626Z,25.97
2023-06-10T05:58:12.718Z,26.13
2023-06-10T05:59:12.808Z,26.24
2023-06-10T06:00:12.887Z,26.09
2023-06-10T06:01:12.995Z,25.81
2023-06-10T06:02:13.077Z,25.48
2023-06-10T06:03:13.188Z,25.74
2023-06-10T06:04:13.238Z,26.08
2023-06-10T06:05:13.777Z,26.47
2023-06-10T06:06:13.388Z,26.81
2023-06-10T06:07:13.451Z,27.16
2023-06-10T06:08:13.585Z,27.43
2023-06-10T06:09:13.610Z,27.77
2023-06-10T06:10:13.656Z,28.06
2023-06-10T06:11:13.762Z,28.40
2023-06-10T06:12:13.815Z,28.77
2023-06-10T06:13:13.937Z,29.08
2023-06-10T06:14:13.982Z,29.27
2023-06-10T06:15:14.075Z,29.25
2023-06-10T06:16:14.187Z,29.15
2023-06-10T06:17:14.255Z,29.12
2023-06-10T06:18:14.350Z,29.35
2023-06-10T06:19:14.811Z,29.51
2023-06-10T06:20:14.491Z,29.45
2023-06-10T06:21:14.593Z,29.47
2023-06-10T06:22:14.655Z,29.66
2023-06-10T06:23:14.783Z,29.86
2023-06-10T06:24:14.876Z,30.19
2023-06-10T06:25:15.042Z,30.40
2023-06-10T06:26:14.983Z,30.30
2023-06-10T06:27:15.086Z,30.26
2023-06-10T06:28:15.169Z,30.30
2023-06-10T06:29:15.253Z,30.11
2023-06-10T06:30:15.309Z,30.01
2023-06-10T06:31:15.430Z,30.11
2023-06-10T06:32:15.469Z,30.11
2023-06-10T06:33:15.615Z,30.16
2023-06-10T06:34:16.839Z,30.32
2023-06-10T06:35:15.736Z,30.61
2023-06-10T06:36:15.784Z,30.81
2023-06-10T06:37:15.881Z,31.00
2023-06-10T06:38:15.987Z,31.28
2023-06-10T06:39:16.019Z,31.19
2023-06-10T06:40:16.091Z,31.41
2023-06-10T06:41:16.245Z,31.65
2023-06-10T06:42:16.278Z,31.87
2023-06-10T06:43:16.598Z,32.09
2023-06-10T06:44:16.461Z,32.39
2023-06-10T06:45:16.563Z,32.73
2023-06-10T06:46:17.779Z,32.53
2023-06-10T06:47:16.712Z,32.53
2023-06-10T06:48:16.902Z,32.72
2023-06-10T06:49:16.823Z,32.35
2023-06-10T06:50:16.883Z,32.53
2023-06-10T06:51:16.988Z,32.71
2023-06-10T06:52:17.067Z,32.71
2023-06-10T06:53:17.157Z,32.90
2023-06-10T06:54:17.206Z,33.05
2023-06-10T06:55:17.278Z,33.22
2023-06-10T06:56:17.337Z,33.35
2023-06-10T06:57:17.416Z,33.60
2023-06-10T06:58:19.088Z,33.87
2023-06-10T06:59:17.560Z,34.18
2023-06-10T07:00:17.629Z,34.42
2023-06-10T07:01:17.711Z,34.49
2023-06-10T07:02:17.806Z,34.48
2023-06-10T07:03:17.886Z,34.53
2023-06-10T07:04:18.011Z,34.38
2023-06-10T07:05:18.082Z,34.53
2023-06-10T07:06:18.166Z,34.08
2023-06-10T07:07:18.257Z,33.79
2023-06-10T07:08:18.316Z,33.29
2023-06-10T07:09:18.402Z,32.88
2023-06-10T07:10:18.474Z,33.21
2023-06-10T07:11:18.546Z,33.56
2023-06-10T07:12:18.613Z,33.70
2023-06-10T07:13:18.694Z,33.78
2023-06-10T07:14:18.818Z,33.82
2023-06-10T07:15:18.869Z,33.89
2023-06-10T07:16:19.072Z,34.01
2023-06-10T07:17:19.174Z,34.01
2023-06-10T07:18:19.132Z,33.96
2023-06-10T07:19:19.238Z,34.01
2023-06-10T07:20:19.292Z,34.33
2023-06-10T07:21:19.343Z,34.26
2023-06-10T07:22:19.406Z,34.33
2023-06-10T07:23:19.516Z,34.28
2023-06-10T07:24:19.668Z,34.30
2023-06-10T07:25:19.667Z,34.67
2023-06-10T07:26:19.737Z,35.07
2023-06-10T07:27:19.791Z,35.13
2023-06-10T07:28:19.904Z,35.27
2023-06-10T07:29:19.983Z,35.50
2023-06-10T07:30:20.041Z,35.50
2023-06-10T07:31:20.202Z,35.64
2023-06-10T07:32:20.211Z,35.84
2023-06-10T07:33:20.291Z,35.56
2023-06-10T07:34:20.385Z,35.20
2023-06-10T07:35:20.442Z,34.56
2023-06-10T07:36:20.544Z,34.84
2023-06-10T07:37:20.589Z,34.63
2023-06-10T07:38:20.668Z,34.87
2023-06-10T07:39:20.795Z,35.22
2023-06-10T07:40:20.830Z,35.50
2023-06-10T07:41:20.884Z,35.46
2023-06-10T07:42:20.976Z,35.64
2023-06-10T07:43:21.032Z,36.05
2023-06-10T07:44:21.175Z,36.57
2023-06-10T07:45:21.226Z,36.60
2023-06-10T07:46:21.433Z,36.67
2023-06-10T07:47:21.392Z,36.25
2023-06-10T07:48:21.468Z,36.27
2023-06-10T07:49:21.585Z,36.25
2023-06-10T07:50:21.644Z,36.52
2023-06-10T07:51:21.705Z,36.53
2023-06-10T07:52:21.811Z,36.87
2023-06-10T07:53:21.881Z,37.09
2023-06-10T07:54:21.983Z,37.05
2023-06-10T07:55:22.032Z,36.44
2023-06-10T07:56:22.205Z,35.96
2023-06-10T07:57:22.212Z,35.66
2023-06-10T07:58:22.301Z,35.77
2023-06-10T07:59:22.403Z,35.56
2023-06-10T08:00:22.447Z,35.54
2023-06-10T08:01:22.498Z,35.99
2023-06-10T08:02:25.513Z,36.60
2023-06-10T08:03:22.719Z,37.24
2023-06-10T08:04:22.981Z,37.70
2023-06-10T08:05:22.972Z,38.07
2023-06-10T08:06:22.925Z,38.07
2023-06-10T08:07:22.996Z,37.63
2023-06-10T08:08:23.090Z,37.06
2023-06-10T08:09:23.190Z,36.99
2023-06-10T08:10:23.246Z,36.78
2023-06-10T08:11:23.319Z,36.99
2023-06-10T08:12:23.387Z,37.24
2023-06-10T08:13:23.459Z,37.60
2023-06-10T08:14:23.598Z,37.91
2023-06-10T08:15:23.643Z,38.30
2023-06-10T08:16:23.758Z,38.55
2023-06-10T08:17:23.830Z,38.12
2023-06-10T08:18:23.871Z,37.90
2023-06-10T08:19:23.949Z,38.15
2023-06-10T08:20:24.086Z,38.41
2023-06-10T08:21:24.113Z,38.71
2023-06-10T08:22:24.189Z,39.07
2023-06-10T08:23:24.258Z,39.39
2023-06-10T08:24:24.522Z,39.57
2023-06-10T08:25:24.422Z,39.63
2023-06-10T08:26:24.502Z,39.34
2023-06-10T08:27:24.582Z,39.07
2023-06-10T08:28:24.649Z,38.65
2023-06-10T08:29:24.775Z,38.86
2023-06-10T08:30:24.852Z,39.20
2023-06-10T08:31:24.952Z,39.25
2023-06-10T08:32:25.158Z,39.17
2023-06-10T08:33:25.127Z,38.95
2023-06-10T08:34:25.254Z,38.18
2023-06-10T08:35:25.316Z,37.91
2023-06-10T08:36:25.416Z,38.07
2023-06-10T08:37:25.520Z,38.36
2023-06-10T08:38:25.609Z,38.84
2023-06-10T08:39:25.725Z,39.20
2023-06-10T08:40:25.808Z,39.53
2023-06-10T08:41:25.893Z,39.46
2023-06-10T08:42:25.996Z,39.44
2023-06-10T08:43:26.017Z,39.24
2023-06-10T08:44:26.171Z,39.13
2023-06-10T08:45:26.178Z,39.10
2023-06-10T08:46:26.277Z,38.26
2023-06-10T08:47:26.485Z,38.49
2023-06-10T08:48:26.550Z,38.67
2023-06-10T08:49:26.565Z,39.07
2023-06-10T08:50:26.642Z,39.66
2023-06-10T08:51:26.780Z,40.21
2023-06-10T08:52:26.858Z,40.72
2023-06-10T08:53:26.872Z,40.61
2023-06-10T08:54:26.994Z,40.19
2023-06-10T08:55:28.910Z,39.75
2023-06-10T08:56:27.153Z,39.54
2023-06-10T08:57:27.217Z,39.51
2023-06-10T08:58:27.281Z,39.65
2023-06-10T08:59:27.376Z,39.91
2023-06-10T09:00:27.546Z,40.02
2023-06-10T09:01:27.561Z,40.02
2023-06-10T09:02:27.567Z,40.00
2023-06-10T09:03:27.635Z,39.99
2023-06-10T09:04:27.727Z,39.36
2023-06-10T09:05:27.753Z,39.07
2023-06-10T09:06:27.865Z,38.87
2023-06-10T09:07:27.930Z,39.16
2023-06-10T09:08:28.039Z,39.47
2023-06-10T09:09:28.116Z,39.75
2023-06-10T09:10:28.189Z,39.56
2023-06-10T09:11:28.245Z,38.92
2023-06-10T09:12:28.347Z,38.60
2023-06-10T09:13:28.419Z,38.24
2023-06-10T09:14:28.490Z,38.19
2023-06-10T09:15:28.543Z,38.36
2023-06-10T09:16:28.668Z,38.45
2023-06-10T09:17:28.722Z,38.53
2023-06-10T09:18:28.816Z,37.82
2023-06-10T09:19:28.883Z,37.28
2023-06-10T09:20:28.947Z,37.27
2023-06-10T09:21:29.053Z,37.47
2023-06-10T09:22:29.154Z,37.43
2023-06-10T09:23:29.240Z,37.47
2023-06-10T09:24:29.300Z,37.80
2023-06-10T09:25:29.352Z,37.69
2023-06-10T09:26:29.459Z,37.68
2023-06-10T09:27:29.527Z,37.66
2023-06-10T09:28:29.604Z,37.80
2023-06-10T09:29:29.765Z,37.65
2023-06-10T09:30:30.015Z,37.59
2023-06-10T09:31:29.935Z,37.45
2023-06-10T09:32:29.931Z,37.13
2023-06-10T09:33:30.016Z,36.93
2023-06-10T09:34:30.107Z,37.12
2023-06-10T09:35:30.210Z,37.15
2023-06-10T09:36:30.286Z,37.33
2023-06-10T09:37:30.330Z,37.49
2023-06-10T09:38:30.432Z,37.33
2023-06-10T09:39:30.510Z,37.02
2023-06-10T09:40:30.628Z,36.72
2023-06-10T09:41:30.679Z,37.01
2023-06-10T09:42:30.790Z,37.40
2023-06-10T09:43:30.832Z,37.97
2023-06-10T09:44:30.929Z,38.55
2023-06-10T09:45:31.088Z,38.90
2023-06-10T09:46:31.193Z,39.35
2023-06-10T09:47:31.199Z,39.61
2023-06-10T09:48:31.241Z,39.85
2023-06-10T09:49:31.313Z,39.81
2023-06-10T09:50:31.452Z,40.02
2023-06-10T09:51:31.486Z,39.36
2023-06-10T09:52:31.791Z,39.14
2023-06-10T09:53:31.636Z,39.17
2023-06-10T09:54:31.742Z,38.98
2023-06-10T09:55:31.840Z,38.70
2023-06-10T09:56:31.935Z,38.43
2023-06-10T09:57:32.051Z,38.50
2023-06-10T09:58:32.050Z,37.85
2023-06-10T09:59:32.126Z,37.66
2023-06-10T10:00:32.256Z,37.85
2023-06-10T10:01:32.321Z,37.23
2023-06-10T10:02:32.389Z,37.04
2023-06-10T10:03:32.456Z,37.16
2023-06-10T10:04:32.682Z,37.20
2023-06-10T10:05:32.769Z,37.38
2023-06-10T10:06:32.755Z,36.99
2023-06-10T10:07:32.808Z,37.12
2023-06-10T10:08:32.921Z,36.60
2023-06-10T10:09:32.970Z,36.65
2023-06-10T10:10:33.103Z,36.40
2023-06-10T10:11:33.187Z,35.91
2023-06-10T10:12:33.216Z,35.91
2023-06-10T10:13:33.295Z,36.18
2023-06-10T10:14:33.447Z,36.43
2023-06-10T10:15:33.545Z,36.37
2023-06-10T10:16:33.649Z,36.67
2023-06-10T10:17:33.764Z,37.01
2023-06-10T10:18:33.800Z,37.43
2023-06-10T10:19:33.806Z,37.82
2023-06-10T10:20:33.924Z,38.21
2023-06-10T10:21:33.969Z,38.19
2023-06-10T10:22:34.070Z,37.87
2023-06-10T10:23:34.241Z,37.97
2023-06-10T10:24:34.377Z,37.72
2023-06-10T10:25:36.160Z,37.68
2023-06-10T10:26:34.498Z,37.69
2023-06-10T10:27:34.476Z,37.87
2023-06-10T10:28:34.557Z,38.04
2023-06-10T10:29:34.700Z,38.24
2023-06-10T10:30:34.719Z,38.14
2023-06-10T10:31:34.856Z,37.91
2023-06-10T10:32:34.944Z,37.78
2023-06-10T10:33:35.042Z,37.49
2023-06-10T10:34:35.046Z,37.21
2023-06-10T10:35:35.094Z,37.04
2023-06-10T10:36:35.242Z,36.94
2023-06-10T10:37:35.262Z,36.74
2023-06-10T10:38:35.354Z,36.52
2023-06-10T10:39:35.439Z,35.78
2023-06-10T10:40:35.544Z,35.56
2023-06-10T10:41:35.670Z,35.59
2023-06-10T10:42:35.708Z,35.71
2023-06-10T10:43:35.791Z,35.64
2023-06-10T10:44:35.886Z,34.72
2023-06-10T10:45:35.954Z,34.49
2023-06-10T10:46:36.083Z,34.60
2023-06-10T10:47:36.128Z,34.86
2023-06-10T10:48:36.207Z,34.84
2023-06-10T10:49:36.308Z,34.48
2023-06-10T10:50:36.386Z,34.52
2023-06-10T10:51:36.478Z,34.64
2023-06-10T10:52:36.536Z,34.61
2023-06-10T10:53:36.655Z,34.40
2023-06-10T10:54:36.710Z,34.46
2023-06-10T10:55:36.811Z,34.65
2023-06-10T10:56:36.928Z,34.73
2023-06-10T10:57:36.972Z,34.81
2023-06-10T10:58:37.063Z,34.73
2023-06-10T10:59:37.172Z,34.78
2023-06-10T11:00:37.308Z,34.81
2023-06-10T11:01:37.410Z,34.49
2023-06-10T11:02:37.499Z,34.24
2023-06-10T11:03:37.564Z,34.06
2023-06-10T11:04:37.770Z,34.05
2023-06-10T11:05:37.704Z,34.14
2023-06-10T11:06:37.808Z,34.19
2023-06-10T11:07:37.839Z,33.59
2023-06-10T11:08:37.941Z,33.49
2023-06-10T11:09:38.025Z,33.65
2023-06-10T11:10:38.153Z,33.84
2023-06-10T11:11:38.208Z,33.94
2023-06-10T11:12:38.263Z,33.40
2023-06-10T11:13:38.349Z,33.47
2023-06-10T11:14:38.444Z,33.63
2023-06-10T11:15:38.539Z,33.70
2023-06-10T11:16:38.682Z,33.79
2023-06-10T11:17:38.778Z,33.78
2023-06-10T11:18:38.753Z,33.84
2023-06-10T11:19:38.863Z,33.65
2023-06-10T11:20:38.935Z,33.68
2023-06-10T11:21:39.113Z,33.40
2023-06-10T11:22:39.121Z,33.31
2023-06-10T11:23:39.305Z,33.18
2023-06-10T11:24:39.335Z,33.33
2023-06-10T11:25:39.375Z,33.49
2023-06-10T11:26:39.477Z,33.66
2023-06-10T11:27:39.602Z,33.70
2023-06-10T11:28:39.643Z,33.66
2023-06-10T11:29:39.737Z,33.70
2023-06-10T11:30:39.772Z,33.87
2023-06-10T11:31:40.012Z,34.03
2023-06-10T11:32:40.042Z,34.05
2023-06-10T11:33:40.100Z,34.01
2023-06-10T11:34:40.097Z,34.06
2023-06-10T11:35:40.195Z,34.14
2023-06-10T11:36:40.272Z,34.16
2023-06-10T11:37:40.329Z,34.12
2023-06-10T11:38:40.394Z,33.92
2023-06-10T11:39:40.455Z,33.60
2023-06-10T11:40:40.512Z,33.40
2023-06-10T11:41:40.622Z,33.18
2023-06-10T11:42:40.674Z,32.85
2023-06-10T11:43:40.772Z,32.80
2023-06-10T11:44:40.832Z,32.56
2023-06-10T11:45:40.936Z,32.40
2023-06-10T11:46:41.147Z,31.98
2023-06-10T11:47:41.191Z,31.76
2023-06-10T11:48:41.165Z,31.57
2023-06-10T11:49:43.177Z,31.49
2023-06-10T11:50:41.308Z,31.42
2023-06-10T11:51:41.441Z,31.46
2023-06-10T11:52:41.483Z,31.46
2023-06-10T11:53:41.585Z,31.45
2023-06-10T11:54:41.633Z,31.46
2023-06-10T11:55:41.742Z,31.49
2023-06-10T11:56:41.843Z,31.50
2023-06-10T11:57:41.902Z,31.49
2023-06-10T11:58:41.963Z,31.46
2023-06-10T11:59:42.055Z,31.45
2023-06-10T12:00:42.118Z,31.47
2023-06-10T12:01:44.071Z,31.45
2023-06-10T12:02:42.346Z,31.45
2023-06-10T12:03:42.523Z,31.46
2023-06-10T12:04:42.460Z,31.52
2023-06-10T12:05:42.641Z,31.62
2023-06-10T12:06:42.654Z,31.68
2023-06-10T12:07:42.728Z,31.64
2023-06-10T12:08:42.778Z,31.60
2023-06-10T12:09:42.874Z,31.50
2023-06-10T12:10:42.936Z,31.37
2023-06-10T12:11:43.048Z,31.28
2023-06-10T12:12:43.072Z,31.22
2023-06-10T12:13:43.180Z,31.25
2023-06-10T12:14:43.246Z,31.30
2023-06-10T12:15:43.363Z,31.31
2023-06-10T12:16:43.437Z,31.35
2023-06-10T12:17:43.536Z,31.40
2023-06-10T12:18:43.566Z,31.40
2023-06-10T12:19:43.680Z,31.41
2023-06-10T12:20:43.734Z,31.46
2023-06-10T12:21:43.905Z,31.47
2023-06-10T12:22:43.985Z,31.52
2023-06-10T12:23:44.041Z,31.57
2023-06-10T12:24:44.107Z,31.57
2023-06-10T12:25:44.204Z,31.34
2023-06-10T12:26:44.279Z,31.22
2023-06-10T12:27:44.347Z,31.18
2023-06-10T12:28:44.435Z,31.28
2023-06-10T12:29:44.501Z,31.42
2023-06-10T12:30:44.569Z,31.60
2023-06-10T12:31:45.488Z,31.72
2023-06-10T12:32:44.759Z,31.88
2023-06-10T12:33:44.815Z,31.71
2023-06-10T12:34:44.876Z,31.85
2023-06-10T12:35:44.964Z,32.05
2023-06-10T12:36:45.009Z,31.97
2023-06-10T12:37:45.134Z,31.90
2023-06-10T12:38:45.174Z,31.88
2023-06-10T12:39:45.271Z,31.79
2023-06-10T12:40:45.333Z,31.82
2023-06-10T12:41:45.429Z,31.95
2023-06-10T12:42:47.065Z,32.06
2023-06-10T12:43:45.596Z,32.14
2023-06-10T12:44:45.658Z,32.17
2023-06-10T12:45:45.790Z,32.14
2023-06-10T12:46:45.797Z,32.12
2023-06-10T12:47:46.024Z,32.16
2023-06-10T12:48:45.928Z,32.24
2023-06-10T12:49:46.074Z,32.14
2023-06-10T12:50:46.101Z,32.19
2023-06-10T12:51:46.170Z,32.27
2023-06-10T12:52:46.263Z,32.28
2023-06-10T12:53:46.338Z,32.17